createdAt,value
2023-04-03T00:00:02.431Z,349.483
2023-04-03T00:01:42.833Z,349.45
2023-04-03T00:03:23.195Z,349.45
2023-04-03T00:05:03.601Z,349.45
2023-04-03T00:06:43.887Z,349.45
2023-04-03T00:08:24.188Z,349.45
2023-04-03T00:10:04.492Z,349.45
2023-04-03T00:11:44.798Z,349.483
2023-04-03T00:13:25.115Z,349.45
2023-04-03T00:15:05.417Z,349.45
2023-04-03T00:16:45.780Z,349.45
2023-04-03T00:18:26.079Z,349.45
2023-04-03T00:20:06.399Z,349.483
2023-04-03T00:21:46.847Z,349.483
2023-04-03T00:23:27.206Z,349.45
2023-04-03T00:25:07.658Z,349.433
2023-04-03T00:26:48.037Z,349.45
2023-04-03T00:28:28.334Z,349.45
2023-04-03T00:30:08.870Z,349.483
2023-04-03T00:31:49.244Z,349.483
2023-04-03T00:33:29.619Z,349.483
2023-04-03T00:35:09.989Z,349.483
2023-04-03T00:36:50.571Z,349.483
2023-04-03T00:38:30.836Z,349.5
2023-04-03T00:40:11.275Z,349.5
2023-04-03T00:41:51.614Z,349.5
2023-04-03T00:43:32.013Z,349.5
2023-04-03T00:45:12.428Z,349.5
2023-04-03T00:46:52.756Z,349.483
2023-04-03T00:48:33.154Z,349.483
2023-04-03T00:50:13.635Z,349.567
2023-04-03T00:51:53.974Z,349.483
2023-04-03T00:53:34.328Z,349.483
2023-04-03T00:55:14.693Z,349.55
2023-04-03T00:56:55.074Z,349.567
2023-04-03T00:58:35.443Z,349.55
2023-04-03T01:00:15.805Z,349.567
2023-04-03T01:01:56.263Z,349.55
2023-04-03T01:03:36.581Z,349.567
2023-04-03T01:05:16.950Z,349.55
2023-04-03T01:06:57.384Z,349.55
2023-04-03T01:08:37.753Z,349.567
2023-04-03T01:10:18.071Z,349.55
2023-04-03T01:11:58.410Z,349.55
2023-04-03T01:13:38.821Z,349.55
2023-04-03T01:15:19.185Z,349.55
2023-04-03T01:16:59.640Z,349.55
2023-04-03T01:18:40.105Z,349.55
2023-04-03T01:20:20.562Z,349.567
2023-04-03T01:22:00.861Z,349.55
2023-04-03T01:23:41.345Z,349.55
2023-04-03T01:25:21.695Z,349.567
2023-04-03T01:27:02.064Z,349.55
2023-04-03T01:28:42.429Z,349.567
2023-04-03T01:30:22.832Z,349.567
2023-04-03T01:32:03.261Z,349.55
2023-04-03T01:33:43.603Z,349.567
2023-04-03T01:35:23.998Z,349.6
2023-04-03T01:37:04.340Z,349.567
2023-04-03T01:38:44.633Z,349.6
2023-04-03T01:40:24.935Z,349.567
2023-04-03T01:42:05.262Z,349.55
2023-04-03T01:43:45.581Z,349.567
2023-04-03T01:45:25.894Z,349.617
2023-04-03T01:47:06.264Z,349.617
2023-04-03T01:48:46.559Z,349.567
2023-04-03T01:50:26.937Z,349.6
2023-04-03T01:52:07.373Z,349.567
2023-04-03T01:53:47.773Z,349.6
2023-04-03T01:55:28.151Z,349.6
2023-04-03T01:57:08.534Z,349.6
2023-04-03T01:58:48.954Z,349.6
2023-04-03T02:00:29.346Z,349.567
2023-04-03T02:02:09.789Z,349.6
2023-04-03T02:03:50.147Z,349.567
2023-04-03T02:05:30.472Z,349.6
2023-04-03T02:07:10.827Z,349.567
2023-04-03T02:08:51.233Z,349.6
2023-04-03T02:10:31.620Z,349.567
2023-04-03T02:12:12.066Z,349.6
2023-04-03T02:13:52.438Z,349.6
2023-04-03T02:15:32.765Z,349.65
2023-04-03T02:17:13.166Z,349.617
2023-04-03T02:18:53.609Z,349.65
2023-04-03T02:20:34.046Z,349.65
2023-04-03T02:22:14.439Z,349.65
2023-04-03T02:23:56.020Z,349.617
2023-04-03T02:25:37.996Z,349.617
2023-04-03T02:27:15.430Z,349.617
2023-04-03T02:28:55.742Z,349.65
2023-04-03T02:30:36.324Z,349.617
2023-04-03T02:32:16.334Z,349.617
2023-04-03T02:33:56.606Z,349.617
2023-04-03T02:35:37.062Z,349.65
2023-04-03T02:37:17.459Z,349.65
2023-04-03T02:38:57.904Z,349.65
2023-04-03T02:40:38.599Z,349.617
2023-04-03T02:42:18.686Z,349.65
2023-04-03T02:43:59.033Z,349.617
2023-04-03T02:45:39.443Z,349.617
2023-04-03T02:47:19.815Z,349.65
2023-04-03T02:49:00.212Z,349.617
2023-04-03T02:50:40.588Z,349.617
2023-04-03T02:52:21.055Z,349.617
2023-04-03T02:54:01.470Z,349.6
2023-04-03T02:55:41.840Z,349.65
2023-04-03T02:57:22.276Z,349.65
2023-04-03T02:59:02.593Z,349.617
2023-04-03T03:00:43.051Z,349.667
2023-04-03T03:02:23.458Z,349.617
2023-04-03T03:04:03.839Z,349.65
2023-04-03T03:05:44.240Z,349.65
2023-04-03T03:07:24.612Z,349.617
2023-04-03T03:09:04.922Z,349.65
2023-04-03T03:10:45.360Z,349.65
2023-04-03T03:12:25.921Z,349.617
2023-04-03T03:14:06.113Z,349.65
2023-04-03T03:15:46.502Z,349.667
2023-04-03T03:17:26.737Z,349.65
2023-04-03T03:19:07.143Z,349.667
2023-04-03T03:20:47.465Z,349.667
2023-04-03T03:22:27.852Z,349.65
2023-04-03T03:24:08.179Z,349.65
2023-04-03T03:25:48.601Z,349.667
2023-04-03T03:27:29.088Z,349.667
2023-04-03T03:29:09.390Z,349.683
2023-04-03T03:30:49.736Z,349.667
2023-04-03T03:32:30.100Z,349.667
2023-04-03T03:34:10.393Z,349.667
2023-04-03T03:35:50.815Z,349.667
2023-04-03T03:37:31.274Z,349.667
2023-04-03T03:39:11.635Z,349.617
2023-04-03T03:40:52.060Z,349.667
2023-04-03T03:42:32.431Z,349.65
2023-04-03T03:44:14.327Z,349.667
2023-04-03T03:45:53.350Z,349.667
2023-04-03T03:47:33.721Z,349.65
2023-04-03T03:49:14.156Z,349.683
2023-04-03T03:50:54.590Z,349.667
2023-04-03T03:52:35.049Z,349.667
2023-04-03T03:54:15.396Z,349.683
2023-04-03T03:55:55.775Z,349.65
2023-04-03T03:57:36.284Z,349.667
2023-04-03T03:59:16.630Z,349.667
2023-04-03T04:00:57.022Z,349.683
2023-04-03T04:02:37.458Z,349.717
2023-04-03T04:04:17.684Z,349.683
2023-04-03T04:05:58.055Z,349.683
2023-04-03T04:07:38.229Z,349.667
2023-04-03T04:09:18.583Z,349.683
2023-04-03T04:10:58.875Z,349.667
2023-04-03T04:12:39.279Z,349.667
2023-04-03T04:14:19.679Z,349.683
2023-04-03T04:15:59.984Z,349.667
2023-04-03T04:17:40.489Z,349.683
2023-04-03T04:19:20.884Z,349.683
2023-04-03T04:21:01.274Z,349.717
2023-04-03T04:22:41.651Z,349.717
2023-04-03T04:24:22.021Z,349.683
2023-04-03T04:26:02.422Z,349.683
2023-04-03T04:27:42.863Z,349.683
2023-04-03T04:29:23.167Z,349.717
2023-04-03T04:31:03.568Z,349.767
2023-04-03T04:32:43.910Z,349.733
2023-04-03T04:34:24.199Z,349.733
2023-04-03T04:36:04.693Z,349.767
2023-04-03T04:37:44.996Z,349.767
2023-04-03T04:39:25.289Z,349.767
2023-04-03T04:41:05.662Z,349.733
2023-04-03T04:42:46.116Z,349.767
2023-04-03T04:44:26.446Z,349.767
2023-04-03T04:46:06.886Z,349.733
2023-04-03T04:47:47.346Z,349.767
2023-04-03T04:49:27.728Z,349.733
2023-04-03T04:51:08.121Z,349.767
2023-04-03T04:52:48.426Z,349.733
2023-04-03T04:54:28.717Z,349.783
2023-04-03T04:56:09.019Z,349.733
2023-04-03T04:57:49.423Z,349.733
2023-04-03T04:59:29.767Z,349.767
2023-04-03T05:01:10.147Z,349.767
2023-04-03T05:02:50.633Z,349.733
2023-04-03T05:04:31.047Z,349.733
2023-04-03T05:06:11.405Z,349.733
2023-04-03T05:07:51.829Z,349.733
2023-04-03T05:09:32.211Z,349.767
2023-04-03T05:11:12.571Z,349.767
2023-04-03T05:12:52.968Z,349.767
2023-04-03T05:14:33.340Z,349.767
2023-04-03T05:16:13.814Z,349.783
2023-04-03T05:17:54.225Z,349.817
2023-04-03T05:19:34.533Z,349.783
2023-04-03T05:21:14.893Z,349.783
2023-04-03T05:22:55.194Z,349.767
2023-04-03T05:24:35.587Z,349.767
2023-04-03T05:26:16.072Z,349.783
2023-04-03T05:27:56.380Z,349.783
2023-04-03T05:29:36.901Z,349.783
2023-04-03T05:31:17.191Z,349.783
2023-04-03T05:32:57.523Z,349.783
2023-04-03T05:34:37.905Z,349.783
2023-04-03T05:36:18.313Z,349.817
2023-04-03T05:37:58.651Z,349.783
2023-04-03T05:39:39.001Z,349.783
2023-04-03T05:41:19.366Z,349.817
2023-04-03T05:42:59.820Z,349.767
2023-04-03T05:44:40.148Z,349.817
2023-04-03T05:46:20.586Z,349.783
2023-04-03T05:48:00.935Z,349.767
2023-04-03T05:49:41.258Z,349.783
2023-04-03T05:51:21.635Z,349.783
2023-04-03T05:53:02.062Z,349.783
2023-04-03T05:54:42.446Z,349.783
2023-04-03T05:56:22.830Z,349.817
2023-04-03T05:58:03.279Z,349.783
2023-04-03T05:59:43.621Z,349.783
2023-04-03T06:01:23.989Z,349.783
2023-04-03T06:03:04.558Z,349.833
2023-04-03T06:04:44.850Z,349.767
2023-04-03T06:06:25.109Z,349.783
2023-04-03T06:08:05.506Z,349.833
2023-04-03T06:09:45.987Z,349.817
2023-04-03T06:11:26.362Z,349.817
2023-04-03T06:13:06.728Z,349.783
2023-04-03T06:14:47.116Z,349.833
2023-04-03T06:16:27.695Z,349.817
2023-04-03T06:18:08.190Z,349.817
2023-04-03T06:19:48.254Z,349.833
2023-04-03T06:21:28.525Z,349.817
2023-04-03T06:23:09.159Z,349.817
2023-04-03T06:24:49.157Z,349.817
2023-04-03T06:26:29.590Z,349.817
2023-04-03T06:28:10.003Z,349.817
2023-04-03T06:29:50.384Z,349.817
2023-04-03T06:31:31.042Z,349.833
2023-04-03T06:33:11.231Z,349.817
2023-04-03T06:34:51.499Z,349.833
2023-04-03T06:36:31.914Z,349.85
2023-04-03T06:38:12.356Z,349.85
2023-04-03T06:39:52.742Z,349.85
2023-04-03T06:41:33.886Z,349.833
2023-04-03T06:43:13.737Z,349.85
2023-04-03T06:44:53.791Z,349.833
2023-04-03T06:46:34.212Z,349.833
2023-04-03T06:48:14.737Z,349.85
2023-04-03T06:49:54.985Z,349.85
2023-04-03T06:51:35.329Z,349.85
2023-04-03T06:53:15.740Z,349.833
2023-04-03T06:54:56.210Z,349.85
2023-04-03T06:56:36.525Z,349.85
2023-04-03T06:58:16.952Z,349.85
2023-04-03T06:59:57.325Z,349.85
2023-04-03T07:01:37.673Z,349.833
2023-04-03T07:03:18.080Z,349.883
2023-04-03T07:04:58.468Z,349.9
2023-04-03T07:06:38.852Z,349.85
2023-04-03T07:08:19.304Z,349.85
2023-04-03T07:09:59.765Z,349.85
2023-04-03T07:11:40.166Z,349.883
2023-04-03T07:13:20.635Z,349.883
2023-04-03T07:15:01.010Z,349.883
2023-04-03T07:16:42.699Z,349.85
2023-04-03T07:18:21.796Z,349.883
2023-04-03T07:20:02.205Z,349.883
2023-04-03T07:21:42.653Z,349.883
2023-04-03T07:23:23.083Z,349.883
2023-04-03T07:25:03.470Z,349.9
2023-04-03T07:26:43.834Z,349.883
2023-04-03T07:28:24.232Z,349.883
2023-04-03T07:30:04.618Z,349.9
2023-04-03T07:31:45.010Z,349.9
2023-04-03T07:33:25.300Z,349.9
2023-04-03T07:35:05.724Z,349.883
2023-04-03T07:36:46.120Z,349.883
2023-04-03T07:38:26.427Z,349.9
2023-04-03T07:40:06.760Z,349.85
2023-04-03T07:41:47.014Z,349.9
2023-04-03T07:43:27.345Z,349.85
2023-04-03T07:45:07.642Z,349.883
2023-04-03T07:46:47.979Z,349.9
2023-04-03T07:48:28.264Z,349.883
2023-04-03T07:50:08.555Z,349.933
2023-04-03T07:51:48.973Z,349.933
2023-04-03T07:53:29.301Z,349.933
2023-04-03T07:55:09.790Z,349.933
2023-04-03T07:56:50.151Z,349.933
2023-04-03T07:58:30.542Z,349.9
2023-04-03T08:00:10.899Z,349.933
2023-04-03T08:01:51.295Z,349.933
2023-04-03T08:03:31.811Z,349.933
2023-04-03T08:05:12.103Z,349.95
2023-04-03T08:06:52.535Z,349.9
2023-04-03T08:08:32.957Z,349.933
2023-04-03T08:10:13.295Z,349.933
2023-04-03T08:11:53.765Z,349.9
2023-04-03T08:13:34.223Z,349.95
2023-04-03T08:15:14.669Z,349.9
2023-04-03T08:16:55.222Z,349.9
2023-04-03T08:18:35.581Z,349.983
2023-04-03T08:20:15.912Z,349.933
2023-04-03T08:21:56.443Z,349.933
2023-04-03T08:23:36.613Z,349.983
2023-04-03T08:25:17.137Z,350
2023-04-03T08:26:57.450Z,350
2023-04-03T08:28:37.845Z,350
2023-04-03T08:30:18.219Z,349.933
2023-04-03T08:31:58.698Z,350
2023-04-03T08:33:39.090Z,350.017
2023-04-03T08:35:19.434Z,350
2023-04-03T08:36:59.779Z,350
2023-04-03T08:38:40.141Z,349.983
2023-04-03T08:40:20.593Z,350
2023-04-03T08:42:01.013Z,350
2023-04-03T08:43:41.433Z,349.983
2023-04-03T08:45:21.837Z,350
2023-04-03T08:47:02.143Z,350
2023-04-03T08:48:42.516Z,350
2023-04-03T08:50:22.930Z,350
2023-04-03T08:52:03.285Z,350
2023-04-03T08:53:43.625Z,350
2023-04-03T08:55:23.979Z,349.983
2023-04-03T08:57:04.471Z,350
2023-04-03T08:58:44.774Z,350
2023-04-03T09:00:25.084Z,349.983
2023-04-03T09:02:05.567Z,350.017
2023-04-03T09:03:45.900Z,350.05
2023-04-03T09:05:26.160Z,350.017
2023-04-03T09:07:06.481Z,350
2023-04-03T09:08:46.771Z,350
2023-04-03T09:10:27.048Z,350
2023-04-03T09:12:07.395Z,350.017
2023-04-03T09:13:47.663Z,350.017
2023-04-03T09:15:38.556Z,350.017
2023-04-03T09:17:08.274Z,350.017
2023-04-03T09:18:48.583Z,350.017
2023-04-03T09:20:28.838Z,350.05
2023-04-03T09:22:09.170Z,350.067
2023-04-03T09:23:49.463Z,350.05
2023-04-03T09:25:31.658Z,350.017
2023-04-03T09:27:10.228Z,350.017
2023-04-03T09:28:51.249Z,350.017
2023-04-03T09:30:30.787Z,350.05
2023-04-03T09:32:11.166Z,350.067
2023-04-03T09:33:51.465Z,350.05
2023-04-03T09:35:40.429Z,350.017
2023-04-03T09:37:12.154Z,350.067
2023-04-03T09:38:52.580Z,350.017
2023-04-03T09:40:32.979Z,350.017
2023-04-03T09:42:13.276Z,350.05
2023-04-03T09:43:53.652Z,350.067
2023-04-03T09:45:34.146Z,350.05
2023-04-03T09:47:14.487Z,350.067
2023-04-03T09:49:05.107Z,350.017
2023-04-03T09:50:35.430Z,350.067
2023-04-03T09:52:15.773Z,350.05
2023-04-03T09:53:56.147Z,350.067
2023-04-03T09:55:36.526Z,350.067
2023-04-03T09:57:16.975Z,350.05
2023-04-03T09:58:57.404Z,350.017
2023-04-03T10:00:37.945Z,350.1
2023-04-03T10:02:18.131Z,350.067
2023-04-03T10:03:58.555Z,350.05
2023-04-03T10:05:38.968Z,350.067
2023-04-03T10:07:19.292Z,350.067
2023-04-03T10:08:59.651Z,350.067
2023-04-03T10:10:40.377Z,350.067
2023-04-03T10:12:20.422Z,350.067
2023-04-03T10:14:00.847Z,350.1
2023-04-03T10:15:41.195Z,350.1
2023-04-03T10:17:21.642Z,350.1
2023-04-03T10:19:02.121Z,350.1
2023-04-03T10:20:42.585Z,350.1
2023-04-03T10:22:23.026Z,350.067
2023-04-03T10:24:03.425Z,350.1
2023-04-03T10:25:43.783Z,350.117
2023-04-03T10:27:24.209Z,350.1
2023-04-03T10:29:04.671Z,350.117
2023-04-03T10:30:45.179Z,350.117
2023-04-03T10:32:25.486Z,350.117
2023-04-03T10:34:05.912Z,350.1
2023-04-03T10:35:46.143Z,350.117
2023-04-03T10:37:26.461Z,350.1
2023-04-03T10:39:06.895Z,350.117
2023-04-03T10:40:47.255Z,350.1
2023-04-03T10:42:27.658Z,350.1
2023-04-03T10:44:08.013Z,350.1
2023-04-03T10:45:48.523Z,350.117
2023-04-03T10:47:28.866Z,350.1
2023-04-03T10:49:09.255Z,350.117
2023-04-03T10:50:49.752Z,350.117
2023-04-03T10:52:30.119Z,350.1
2023-04-03T10:54:10.527Z,350.15
2023-04-03T10:55:50.948Z,350.117
2023-04-03T10:57:31.417Z,350.15
2023-04-03T10:59:11.838Z,350.15
2023-04-03T11:00:52.231Z,350.167
2023-04-03T11:02:32.801Z,350.15
2023-04-03T11:04:13.046Z,350.117
2023-04-03T11:05:53.444Z,350.15
2023-04-03T11:07:33.794Z,350.167
2023-04-03T11:09:14.158Z,350.15
2023-04-03T11:10:54.597Z,350.15
2023-04-03T11:12:35.068Z,350.15
2023-04-03T11:14:15.428Z,350.15
2023-04-03T11:15:55.931Z,350.15
2023-04-03T11:17:36.393Z,350.15
2023-04-03T11:19:16.711Z,350.15
2023-04-03T11:20:57.042Z,350.15
2023-04-03T11:22:37.474Z,350.15
2023-04-03T11:24:17.873Z,350.15
2023-04-03T11:25:58.177Z,350.167
2023-04-03T11:27:38.508Z,350.167
2023-04-03T11:29:32.209Z,350.167
2023-04-03T11:30:59.555Z,350.167
2023-04-03T11:32:39.839Z,350.167
2023-04-03T11:34:20.233Z,350.167
2023-04-03T11:36:00.705Z,350.167
2023-04-03T11:37:41.103Z,350.167
2023-04-03T11:39:21.553Z,350.167
2023-04-03T11:41:02.080Z,350.167
2023-04-03T11:42:42.478Z,350.167
2023-04-03T11:44:22.784Z,350.167
2023-04-03T11:46:03.160Z,350.183
2023-04-03T11:47:43.496Z,350.183
2023-04-03T11:49:23.846Z,350.167
2023-04-03T11:51:04.234Z,350.167
2023-04-03T11:52:44.941Z,350.167
2023-04-03T11:54:28.077Z,350.167
2023-04-03T11:56:05.325Z,350.183
2023-04-03T11:57:45.715Z,350.233
2023-04-03T11:59:26.104Z,350.167
2023-04-03T12:01:06.536Z,350.233
2023-04-03T12:02:54.330Z,350.167
2023-04-03T12:04:27.307Z,350.233
2023-04-03T12:06:07.697Z,350.233
2023-04-03T12:07:48.132Z,350.233
2023-04-03T12:09:28.579Z,350.233
2023-04-03T12:11:08.829Z,350.233
2023-04-03T12:12:49.223Z,350.233
2023-04-03T12:14:29.661Z,350.233
2023-04-03T12:16:10.068Z,350.233
2023-04-03T12:17:50.382Z,350.233
2023-04-03T12:19:41.213Z,350.233
2023-04-03T12:21:11.174Z,350.233
2023-04-03T12:22:51.618Z,350.217
2023-04-03T12:24:32.027Z,350.233
2023-04-03T12:26:12.481Z,350.233
2023-04-03T12:27:52.814Z,350.267
2023-04-03T12:29:33.140Z,350.217
2023-04-03T12:31:13.479Z,350.267
2023-04-03T12:33:05.712Z,350.267
2023-04-03T12:34:34.062Z,350.267
2023-04-03T12:36:14.421Z,350.283
2023-04-03T12:37:54.710Z,350.283
2023-04-03T12:39:35.109Z,350.233
2023-04-03T12:41:15.458Z,350.283
2023-04-03T12:42:55.817Z,350.267
2023-04-03T12:44:36.211Z,350.267
2023-04-03T12:46:16.692Z,350.267
2023-04-03T12:47:57.050Z,350.267
2023-04-03T12:49:37.398Z,350.283
2023-04-03T12:51:17.864Z,350.267
2023-04-03T12:52:58.148Z,350.267
2023-04-03T12:54:38.540Z,350.267
2023-04-03T12:56:19.031Z,350.283
2023-04-03T12:57:59.476Z,350.267
2023-04-03T12:59:39.860Z,350.267
2023-04-03T13:01:20.343Z,350.283
2023-04-03T13:03:00.748Z,350.317
2023-04-03T13:04:41.095Z,350.283
2023-04-03T13:06:21.521Z,350.317
2023-04-03T13:08:01.971Z,350.283
2023-04-03T13:09:42.397Z,350.283
2023-04-03T13:11:22.731Z,350.283
2023-04-03T13:13:03.100Z,350.317
2023-04-03T13:14:43.468Z,350.317
2023-04-03T13:16:23.946Z,350.317
2023-04-03T13:18:04.215Z,350.283
2023-04-03T13:19:44.574Z,350.317
2023-04-03T13:21:24.970Z,350.317
2023-04-03T13:23:05.346Z,350.317
2023-04-03T13:24:45.706Z,350.333
2023-04-03T13:26:26.135Z,350.317
2023-04-03T13:28:13.497Z,350.317
2023-04-03T13:29:46.865Z,350.35
2023-04-03T13:31:27.348Z,350.333
2023-04-03T13:33:07.570Z,350.333
2023-04-03T13:34:47.862Z,350.333
2023-04-03T13:36:28.168Z,350.333
2023-04-03T13:38:08.517Z,350.333
2023-04-03T13:39:48.891Z,350.35
2023-04-03T13:41:29.355Z,350.333
2023-04-03T13:43:09.739Z,350.333
2023-04-03T13:44:50.108Z,350.35
2023-04-03T13:46:30.503Z,350.333
2023-04-03T13:48:22.224Z,350.333
2023-04-03T13:49:51.194Z,350.35
2023-04-03T13:51:31.568Z,350.333
2023-04-03T13:53:11.979Z,350.317
2023-04-03T13:54:52.379Z,350.333
2023-04-03T13:56:32.758Z,350.333
2023-04-03T13:58:13.178Z,350.333
2023-04-03T13:59:53.525Z,350.333
2023-04-03T14:01:33.854Z,350.333
2023-04-03T14:03:14.137Z,350.383
2023-04-03T14:04:54.463Z,350.333
2023-04-03T14:06:34.743Z,350.35
2023-04-03T14:08:15.034Z,350.4
2023-04-03T14:09:55.436Z,350.35
2023-04-03T14:11:35.810Z,350.383
2023-04-03T14:13:16.259Z,350.383
2023-04-03T14:14:56.662Z,350.383
2023-04-03T14:16:37.095Z,350.35
2023-04-03T14:18:17.420Z,350.383
2023-04-03T14:19:57.846Z,350.4
2023-04-03T14:21:38.286Z,350.383
2023-04-03T14:23:18.604Z,350.383
2023-04-03T14:24:58.970Z,350.383
2023-04-03T14:26:39.396Z,350.4
2023-04-03T14:28:19.869Z,350.383
2023-04-03T14:30:00.310Z,350.383
2023-04-03T14:31:40.843Z,350.383
2023-04-03T14:33:21.174Z,350.383
2023-04-03T14:35:01.511Z,350.35
2023-04-03T14:36:41.954Z,350.4
2023-04-03T14:38:22.252Z,350.383
2023-04-03T14:40:02.669Z,350.35
2023-04-03T14:41:43.051Z,350.383
2023-04-03T14:43:23.400Z,350.4
2023-04-03T14:45:03.707Z,350.433
2023-04-03T14:48:24.380Z,350.4
2023-04-03T14:50:04.693Z,350.433
2023-04-03T14:51:45.043Z,350.433
2023-04-03T14:53:37.928Z,350.433
2023-04-03T14:55:05.824Z,350.4
2023-04-03T14:56:46.264Z,350.433
2023-04-03T14:58:26.711Z,350.45
2023-04-03T15:00:07.089Z,350.433
2023-04-03T15:01:47.518Z,350.4
2023-04-03T15:03:27.864Z,350.4
2023-04-03T15:05:08.174Z,350.433
2023-04-03T15:06:48.601Z,350.4
2023-04-03T15:08:29.049Z,350.433
2023-04-03T15:10:09.397Z,350.467
2023-04-03T15:11:49.799Z,350.433
2023-04-03T15:13:30.119Z,350.467
2023-04-03T15:15:10.482Z,350.467
2023-04-03T15:16:50.868Z,350.467
2023-04-03T15:18:31.283Z,350.467
2023-04-03T15:20:11.627Z,350.4
2023-04-03T15:21:52.081Z,350.45
2023-04-03T15:23:32.464Z,350.467
2023-04-03T15:25:12.890Z,350.5
2023-04-03T15:26:53.229Z,350.467
2023-04-03T15:28:33.606Z,350.45
2023-04-03T15:30:14.055Z,350.467
2023-04-03T15:31:54.801Z,350.467
2023-04-03T15:33:34.967Z,350.467
2023-04-03T15:35:15.275Z,350.467
2023-04-03T15:36:55.734Z,350.467
2023-04-03T15:38:36.062Z,350.467
2023-04-03T15:40:16.481Z,350.467
2023-04-03T15:41:56.830Z,350.467
2023-04-03T15:43:37.247Z,350.5
2023-04-03T15:45:17.648Z,350.5
2023-04-03T15:46:58.034Z,350.467
2023-04-03T15:48:38.371Z,350.467
2023-04-03T15:50:18.823Z,350.5
2023-04-03T15:51:59.222Z,350.517
2023-04-03T15:53:39.550Z,350.467
2023-04-03T15:55:19.930Z,350.5
2023-04-03T15:57:00.343Z,350.5
2023-04-03T15:58:40.642Z,350.517
2023-04-03T16:00:21.141Z,350.517
2023-04-03T16:02:01.591Z,350.517
2023-04-03T16:03:41.882Z,350.517
2023-04-03T16:05:22.248Z,350.467
2023-04-03T16:07:02.564Z,350.5
2023-04-03T16:08:42.986Z,350.517
2023-04-03T16:10:23.360Z,350.517
2023-04-03T16:12:03.711Z,350.5
2023-04-03T16:13:44.114Z,350.517
2023-04-03T16:15:24.563Z,350.5
2023-04-03T16:17:04.977Z,350.5
2023-04-03T16:18:45.413Z,350.5
2023-04-03T16:20:25.849Z,350.517
2023-04-03T16:22:06.223Z,350.5
2023-04-03T16:23:46.642Z,350.517
2023-04-03T16:25:26.984Z,350.55
2023-04-03T16:27:07.432Z,350.55
2023-04-03T16:28:47.813Z,350.517
2023-04-03T16:30:28.206Z,350.55
2023-04-03T16:32:08.566Z,350.517
2023-04-03T16:33:48.888Z,350.517
2023-04-03T16:35:29.286Z,350.55
2023-04-03T16:37:09.738Z,350.55
2023-04-03T16:38:49.985Z,350.55
2023-04-03T16:40:30.351Z,350.55
2023-04-03T16:42:10.662Z,350.55
2023-04-03T16:43:51.008Z,350.55
2023-04-03T16:45:31.422Z,350.517
2023-04-03T16:47:11.853Z,350.55
2023-04-03T16:48:52.040Z,350.55
2023-04-03T16:50:32.577Z,350.517
2023-04-03T16:52:12.957Z,350.55
2023-04-03T16:53:53.436Z,350.55
2023-04-03T16:55:33.769Z,350.55
2023-04-03T16:57:14.050Z,350.567
2023-04-03T16:58:54.351Z,350.55
2023-04-03T17:00:34.653Z,350.517
2023-04-03T17:02:15.054Z,350.517
2023-04-03T17:03:55.365Z,350.55
2023-04-03T17:05:35.619Z,350.55
2023-04-03T17:07:15.916Z,350.55
2023-04-03T17:08:56.225Z,350.55
2023-04-03T17:10:36.578Z,350.567
2023-04-03T17:12:17.044Z,350.567
2023-04-03T17:13:57.436Z,350.6
2023-04-03T17:15:37.824Z,350.55
2023-04-03T17:17:18.152Z,350.567
2023-04-03T17:18:58.591Z,350.567
2023-04-03T17:20:38.970Z,350.567
2023-04-03T17:22:19.354Z,350.6
2023-04-03T17:23:59.697Z,350.567
2023-04-03T17:25:40.265Z,350.567
2023-04-03T17:27:20.336Z,350.6
2023-04-03T17:29:00.726Z,350.567
2023-04-03T17:30:41.118Z,350.567
2023-04-03T17:32:21.646Z,350.567
2023-04-03T17:34:01.996Z,350.55
2023-04-03T17:35:42.382Z,350.567
2023-04-03T17:37:22.740Z,350.567
2023-04-03T17:39:03.084Z,350.6
2023-04-03T17:40:44.163Z,350.567
2023-04-03T17:42:23.904Z,350.6
2023-04-03T17:44:04.295Z,350.6
2023-04-03T17:45:44.629Z,350.6
2023-04-03T17:47:24.970Z,350.6
2023-04-03T17:49:05.457Z,350.617
2023-04-03T17:50:45.761Z,350.6
2023-04-03T17:52:26.120Z,350.617
2023-04-03T17:54:06.460Z,350.617
2023-04-03T17:55:46.925Z,350.617
2023-04-03T17:57:27.384Z,350.617
2023-04-03T17:59:07.788Z,350.6
2023-04-03T18:00:48.172Z,350.6
2023-04-03T18:02:28.567Z,350.617
2023-04-03T18:04:08.893Z,350.617
2023-04-03T18:05:49.283Z,350.617
2023-04-03T18:07:29.651Z,350.567
2023-04-03T18:09:09.988Z,350.6
2023-04-03T18:10:50.352Z,350.617
2023-04-03T18:12:30.671Z,350.567
2023-04-03T18:14:11.068Z,350.617
2023-04-03T18:15:51.502Z,350.617
2023-04-03T18:17:31.904Z,350.6
2023-04-03T18:19:23.040Z,350.617
2023-04-03T18:20:52.629Z,350.6
2023-04-03T18:22:32.989Z,350.6
2023-04-03T18:24:13.364Z,350.6
2023-04-03T18:25:53.714Z,350.683
2023-04-03T18:27:34.039Z,350.667
2023-04-03T18:29:14.403Z,350.617
2023-04-03T18:30:54.741Z,350.567
2023-04-03T18:32:35.173Z,350.667
2023-04-03T18:34:15.468Z,350.667
2023-04-03T18:35:55.788Z,350.667
2023-04-03T18:37:36.075Z,350.667
2023-04-03T18:39:16.390Z,350.667
2023-04-03T18:40:56.667Z,350.667
2023-04-03T18:42:36.967Z,350.667
2023-04-03T18:44:17.279Z,350.667
2023-04-03T18:45:57.606Z,350.667
2023-04-03T18:47:37.900Z,350.667
2023-04-03T18:49:18.243Z,350.667
2023-04-03T18:50:58.516Z,350.683
2023-04-03T18:52:38.813Z,350.633
2023-04-03T18:54:19.117Z,350.667
2023-04-03T18:55:59.420Z,350.633
2023-04-03T18:57:39.716Z,350.667
2023-04-03T18:59:20.079Z,350.667
2023-04-03T19:01:00.339Z,350.667
2023-04-03T19:02:40.621Z,350.667
2023-04-03T19:04:20.916Z,350.683
2023-04-03T19:06:01.174Z,350.667
2023-04-03T19:07:41.489Z,350.667
2023-04-03T19:09:21.842Z,350.667
2023-04-03T19:11:02.140Z,350.667
2023-04-03T19:12:42.426Z,350.683
2023-04-03T19:14:22.760Z,350.667
2023-04-03T19:16:03.016Z,350.717
2023-04-03T19:17:43.368Z,350.717
2023-04-03T19:19:23.636Z,350.717
2023-04-03T19:21:03.933Z,350.717
2023-04-03T19:22:44.215Z,350.717
2023-04-03T19:24:24.554Z,350.683
2023-04-03T19:26:04.877Z,350.717
2023-04-03T19:27:45.271Z,350.717
2023-04-03T19:29:25.631Z,350.717
2023-04-03T19:31:05.946Z,350.717
2023-04-03T19:32:46.300Z,350.683
2023-04-03T19:34:26.654Z,350.717
2023-04-03T19:36:07.117Z,350.717
2023-04-03T19:37:47.502Z,350.717
2023-04-03T19:39:27.934Z,350.717
2023-04-03T19:41:08.320Z,350.717
2023-04-03T19:42:48.709Z,350.733
2023-04-03T19:44:29.109Z,350.683
2023-04-03T19:46:09.555Z,350.717
2023-04-03T19:47:49.987Z,350.717
2023-04-03T19:49:30.409Z,350.733
2023-04-03T19:51:10.729Z,350.733
2023-04-03T19:52:51.131Z,350.733
2023-04-03T19:54:31.493Z,350.733
2023-04-03T19:56:11.850Z,350.717
2023-04-03T19:57:52.250Z,350.733
2023-04-03T19:59:32.674Z,350.733
2023-04-03T20:01:13.082Z,350.717
2023-04-03T20:02:53.533Z,350.733
2023-04-03T20:04:33.904Z,350.733
2023-04-03T20:06:14.100Z,350.717
2023-04-03T20:07:54.410Z,350.733
2023-04-03T20:09:34.720Z,350.733
2023-04-03T20:11:15.054Z,350.767
2023-04-03T20:12:55.308Z,350.733
2023-04-03T20:14:35.644Z,350.733
2023-04-03T20:16:16.118Z,350.717
2023-04-03T20:17:56.491Z,350.733
2023-04-03T20:19:36.877Z,350.733
2023-04-03T20:21:17.187Z,350.717
2023-04-03T20:22:57.581Z,350.733
2023-04-03T20:24:37.975Z,350.733
2023-04-03T20:26:18.452Z,350.767
2023-04-03T20:27:58.807Z,350.767
2023-04-03T20:29:39.150Z,350.767
2023-04-03T20:31:19.544Z,350.733
2023-04-03T20:32:59.896Z,350.767
2023-04-03T20:34:40.582Z,350.733